sensor_id;sensor_type;location;lat;lon;timestamp;temperature;humidity
24087;DHT22;22893;50.572;7.234;2023-04-15T00:00:49;22.50;50.80
24087;DHT22;22893;50.572;7.234;2023-04-15T00:03:17;22.50;50.90
24087;DHT22;22893;50.572;7.234;2023-04-15T00:05:45;22.50;50.70
24087;DHT22;22893;50.572;7.234;2023-04-15T00:08:13;22.40;50.70
24087;DHT22;22893;50.572;7.234;2023-04-15T00:10:40;22.40;50.60
24087;DHT22;22893;50.572;7.234;2023-04-15T00:13:09;22.40;50.60
24087;DHT22;22893;50.572;7.234;2023-04-15T00:15:37;22.40;50.60
24087;DHT22;22893;50.572;7.234;2023-04-15T00:18:04;22.40;50.60
24087;DHT22;22893;50.572;7.234;2023-04-15T00:20:34;22.40;50.60
24087;DHT22;22893;50.572;7.234;2023-04-15T00:23:02;22.40;50.50
24087;DHT22;22893;50.572;7.234;2023-04-15T00:25:31;22.40;50.50
24087;DHT22;22893;50.572;7.234;2023-04-15T00:27:58;22.40;50.40
24087;DHT22;22893;50.572;7.234;2023-04-15T00:30:26;22.40;50.50
24087;DHT22;22893;50.572;7.234;2023-04-15T00:32:53;22.40;50.40
24087;DHT22;22893;50.572;7.234;2023-04-15T00:35:21;22.40;50.50
24087;DHT22;22893;50.572;7.234;2023-04-15T00:37:50;22.40;50.50
24087;DHT22;22893;50.572;7.234;2023-04-15T00:40:18;22.30;50.30
24087;DHT22;22893;50.572;7.234;2023-04-15T00:42:47;22.30;50.30
24087;DHT22;22893;50.572;7.234;2023-04-15T00:45:14;22.30;50.30
24087;DHT22;22893;50.572;7.234;2023-04-15T00:47:43;22.30;50.20
24087;DHT22;22893;50.572;7.234;2023-04-15T00:50:11;22.30;50.20
24087;DHT22;22893;50.572;7.234;2023-04-15T00:52:40;22.30;50.90
24087;DHT22;22893;50.572;7.234;2023-04-15T00:55:08;22.30;50.30
24087;DHT22;22893;50.572;7.234;2023-04-15T00:57:35;22.30;50.20
24087;DHT22;22893;50.572;7.234;2023-04-15T01:00:04;22.20;50.10
24087;DHT22;22893;50.572;7.234;2023-04-15T01:02:34;22.20;50.20
24087;DHT22;22893;50.572;7.234;2023-04-15T01:05:03;22.20;50.10
24087;DHT22;22893;50.572;7.234;2023-04-15T01:07:31;22.20;50.10
24087;DHT22;22893;50.572;7.234;2023-04-15T01:09:59;22.20;50.10
24087;DHT22;22893;50.572;7.234;2023-04-15T01:12:27;22.20;50.10
24087;DHT22;22893;50.572;7.234;2023-04-15T01:14:55;22.20;50.00
24087;DHT22;22893;50.572;7.234;2023-04-15T01:17:23;22.20;50.10
24087;DHT22;22893;50.572;7.234;2023-04-15T01:19:52;22.20;50.00
24087;DHT22;22893;50.572;7.234;2023-04-15T01:22:21;22.20;50.10
24087;DHT22;22893;50.572;7.234;2023-04-15T01:24:54;22.20;50.00
24087;DHT22;22893;50.572;7.234;2023-04-15T01:27:23;22.20;50.00
24087;DHT22;22893;50.572;7.234;2023-04-15T01:29:50;22.20;50.00
24087;DHT22;22893;50.572;7.234;2023-04-15T01:32:18;22.20;50.00
24087;DHT22;22893;50.572;7.234;2023-04-15T01:34:45;22.20;49.90
24087;DHT22;22893;50.572;7.234;2023-04-15T01:37:13;22.10;49.80
24087;DHT22;22893;50.572;7.234;2023-04-15T01:39:40;22.10;49.80
24087;DHT22;22893;50.572;7.234;2023-04-15T01:42:08;22.10;50.50
24087;DHT22;22893;50.572;7.234;2023-04-15T01:44:35;22.10;49.30
24087;DHT22;22893;50.572;7.234;2023-04-15T01:47:22;22.10;49.80
24087;DHT22;22893;50.572;7.234;2023-04-15T01:49:50;22.10;49.60
24087;DHT22;22893;50.572;7.234;2023-04-15T01:52:18;22.20;49.60
24087;DHT22;22893;50.572;7.234;2023-04-15T01:54:46;22.10;49.60
24087;DHT22;22893;50.572;7.234;2023-04-15T01:57:13;22.10;49.80
24087;DHT22;22893;50.572;7.234;2023-04-15T01:59:41;22.10;49.60
24087;DHT22;22893;50.572;7.234;2023-04-15T02:02:08;22.10;49.60
24087;DHT22;22893;50.572;7.234;2023-04-15T02:04:36;22.10;49.60
24087;DHT22;22893;50.572;7.234;2023-04-15T02:07:04;22.10;49.60
24087;DHT22;22893;50.572;7.234;2023-04-15T02:09:32;22.10;49.60
24087;DHT22;22893;50.572;7.234;2023-04-15T02:12:00;22.10;49.60
24087;DHT22;22893;50.572;7.234;2023-04-15T02:14:27;22.10;49.60
24087;DHT22;22893;50.572;7.234;2023-04-15T02:16:55;22.10;49.70
24087;DHT22;22893;50.572;7.234;2023-04-15T02:19:22;22.00;49.60
24087;DHT22;22893;50.572;7.234;2023-04-15T02:21:50;22.00;49.50
24087;DHT22;22893;50.572;7.234;2023-04-15T02:24:18;22.00;49.50
24087;DHT22;22893;50.572;7.234;2023-04-15T02:26:45;22.00;49.50
24087;DHT22;22893;50.572;7.234;2023-04-15T02:29:13;22.00;49.50
24087;DHT22;22893;50.572;7.234;2023-04-15T02:31:40;22.00;49.60
24087;DHT22;22893;50.572;7.234;2023-04-15T02:34:09;22.00;49.60
24087;DHT22;22893;50.572;7.234;2023-04-15T02:36:36;22.00;49.50
24087;DHT22;22893;50.572;7.234;2023-04-15T02:39:06;21.90;49.50
24087;DHT22;22893;50.572;7.234;2023-04-15T02:41:34;21.90;49.40
24087;DHT22;22893;50.572;7.234;2023-04-15T02:44:02;21.90;49.20
24087;DHT22;22893;50.572;7.234;2023-04-15T02:46:29;21.90;49.20
24087;DHT22;22893;50.572;7.234;2023-04-15T02:48:57;21.90;49.30
24087;DHT22;22893;50.572;7.234;2023-04-15T02:51:25;21.90;49.30
24087;DHT22;22893;50.572;7.234;2023-04-15T02:53:54;21.90;49.40
24087;DHT22;22893;50.572;7.234;2023-04-15T02:56:22;21.90;49.20
24087;DHT22;22893;50.572;7.234;2023-04-15T02:58:49;21.90;49.30
24087;DHT22;22893;50.572;7.234;2023-04-15T03:01:17;21.90;49.40
24087;DHT22;22893;50.572;7.234;2023-04-15T03:03:45;21.90;49.30
24087;DHT22;22893;50.572;7.234;2023-04-15T03:06:13;21.90;49.30
24087;DHT22;22893;50.572;7.234;2023-04-15T03:08:41;21.90;49.30
24087;DHT22;22893;50.572;7.234;2023-04-15T03:11:08;21.90;49.30
24087;DHT22;22893;50.572;7.234;2023-04-15T03:13:36;21.90;49.30
24087;DHT22;22893;50.572;7.234;2023-04-15T03:16:05;21.90;49.20
24087;DHT22;22893;50.572;7.234;2023-04-15T03:18:33;21.90;49.20
24087;DHT22;22893;50.572;7.234;2023-04-15T03:21:01;21.80;49.20
24087;DHT22;22893;50.572;7.234;2023-04-15T03:23:29;21.80;49.20
24087;DHT22;22893;50.572;7.234;2023-04-15T03:26:00;21.90;49.20
24087;DHT22;22893;50.572;7.234;2023-04-15T03:28:26;21.80;49.20
24087;DHT22;22893;50.572;7.234;2023-04-15T03:30:55;21.90;49.20
24087;DHT22;22893;50.572;7.234;2023-04-15T03:33:23;21.80;49.00
24087;DHT22;22893;50.572;7.234;2023-04-15T03:35:51;21.80;49.10
24087;DHT22;22893;50.572;7.234;2023-04-15T03:38:19;21.80;49.10
24087;DHT22;22893;50.572;7.234;2023-04-15T03:40:47;21.80;48.90
24087;DHT22;22893;50.572;7.234;2023-04-15T03:43:14;21.80;49.00
24087;DHT22;22893;50.572;7.234;2023-04-15T03:45:42;21.80;48.90
24087;DHT22;22893;50.572;7.234;2023-04-15T03:48:09;21.70;48.90
24087;DHT22;22893;50.572;7.234;2023-04-15T03:50:37;21.80;49.00
24087;DHT22;22893;50.572;7.234;2023-04-15T03:53:04;21.70;49.60
24087;DHT22;22893;50.572;7.234;2023-04-15T03:55:32;21.70;49.50
24087;DHT22;22893;50.572;7.234;2023-04-15T03:57:59;21.70;48.80
24087;DHT22;22893;50.572;7.234;2023-04-15T04:00:27;21.70;49.10
24087;DHT22;22893;50.572;7.234;2023-04-15T04:02:55;21.80;49.00
24087;DHT22;22893;50.572;7.234;2023-04-15T04:05:22;21.70;48.90
24087;DHT22;22893;50.572;7.234;2023-04-15T04:07:50;21.70;48.90
24087;DHT22;22893;50.572;7.234;2023-04-15T04:10:18;21.70;48.80
24087;DHT22;22893;50.572;7.234;2023-04-15T04:12:45;21.70;48.80
24087;DHT22;22893;50.572;7.234;2023-04-15T04:15:13;21.70;48.80
24087;DHT22;22893;50.572;7.234;2023-04-15T04:17:40;21.60;48.80
24087;DHT22;22893;50.572;7.234;2023-04-15T04:20:08;21.70;48.70
24087;DHT22;22893;50.572;7.234;2023-04-15T04:22:39;21.60;48.80
24087;DHT22;22893;50.572;7.234;2023-04-15T04:25:07;21.60;48.70
24087;DHT22;22893;50.572;7.234;2023-04-15T04:27:35;21.60;48.70
24087;DHT22;22893;50.572;7.234;2023-04-15T04:30:04;21.60;48.80
24087;DHT22;22893;50.572;7.234;2023-04-15T04:32:32;21.60;48.80
24087;DHT22;22893;50.572;7.234;2023-04-15T04:35:00;21.60;48.80
24087;DHT22;22893;50.572;7.234;2023-04-15T04:37:27;21.60;48.70
24087;DHT22;22893;50.572;7.234;2023-04-15T04:39:55;21.60;48.70
24087;DHT22;22893;50.572;7.234;2023-04-15T04:42:22;21.60;48.70
24087;DHT22;22893;50.572;7.234;2023-04-15T04:44:50;21.60;48.70
24087;DHT22;22893;50.572;7.234;2023-04-15T04:47:18;21.60;48.70
24087;DHT22;22893;50.572;7.234;2023-04-15T04:49:45;21.60;48.90
24087;DHT22;22893;50.572;7.234;2023-04-15T04:52:13;21.60;48.70
24087;DHT22;22893;50.572;7.234;2023-04-15T04:54:40;21.60;48.70
24087;DHT22;22893;50.572;7.234;2023-04-15T04:57:08;21.50;48.60
24087;DHT22;22893;50.572;7.234;2023-04-15T04:59:35;21.50;48.60
24087;DHT22;22893;50.572;7.234;2023-04-15T05:02:03;21.50;48.90
24087;DHT22;22893;50.572;7.234;2023-04-15T05:04:31;21.50;48.80
24087;DHT22;22893;50.572;7.234;2023-04-15T05:06:58;21.50;48.60
24087;DHT22;22893;50.572;7.234;2023-04-15T05:09:26;21.50;48.70
24087;DHT22;22893;50.572;7.234;2023-04-15T05:11:53;21.50;48.60
24087;DHT22;22893;50.572;7.234;2023-04-15T05:14:22;21.20;45.60
24087;DHT22;22893;50.572;7.234;2023-04-15T05:16:49;20.80;46.80
24087;DHT22;22893;50.572;7.234;2023-04-15T05:19:17;20.80;48.70
24087;DHT22;22893;50.572;7.234;2023-04-15T05:21:45;20.90;48.90
24087;DHT22;22893;50.572;7.234;2023-04-15T05:24:12;21.00;48.80
24087;DHT22;22893;50.572;7.234;2023-04-15T05:26:40;21.10;48.80
24087;DHT22;22893;50.572;7.234;2023-04-15T05:29:08;21.20;48.70
24087;DHT22;22893;50.572;7.234;2023-04-15T05:31:36;21.20;48.70
24087;DHT22;22893;50.572;7.234;2023-04-15T05:34:03;21.20;48.70
24087;DHT22;22893;50.572;7.234;2023-04-15T05:36:31;21.20;48.80
24087;DHT22;22893;50.572;7.234;2023-04-15T05:38:58;21.30;48.80
24087;DHT22;22893;50.572;7.234;2023-04-15T05:41:26;21.30;49.00
24087;DHT22;22893;50.572;7.234;2023-04-15T05:43:56;21.30;48.90
24087;DHT22;22893;50.572;7.234;2023-04-15T05:46:24;21.40;48.90
24087;DHT22;22893;50.572;7.234;2023-04-15T05:48:51;21.40;48.90
24087;DHT22;22893;50.572;7.234;2023-04-15T05:51:19;21.40;48.80
24087;DHT22;22893;50.572;7.234;2023-04-15T05:53:47;21.40;48.80
24087;DHT22;22893;50.572;7.234;2023-04-15T05:56:14;21.40;48.90
24087;DHT22;22893;50.572;7.234;2023-04-15T05:58:42;21.40;49.80
24087;DHT22;22893;50.572;7.234;2023-04-15T06:01:10;21.40;49.00
24087;DHT22;22893;50.572;7.234;2023-04-15T06:03:38;21.40;49.20
24087;DHT22;22893;50.572;7.234;2023-04-15T06:06:05;21.30;49.20
24087;DHT22;22893;50.572;7.234;2023-04-15T06:08:33;21.40;49.30
24087;DHT22;22893;50.572;7.234;2023-04-15T06:11:00;21.40;49.40
24087;DHT22;22893;50.572;7.234;2023-04-15T06:13:28;21.40;49.40
24087;DHT22;22893;50.572;7.234;2023-04-15T06:15:56;21.40;49.30
24087;DHT22;22893;50.572;7.234;2023-04-15T06:18:23;21.40;49.30
24087;DHT22;22893;50.572;7.234;2023-04-15T06:20:51;21.40;49.50
24087;DHT22;22893;50.572;7.234;2023-04-15T06:23:19;21.50;49.60
24087;DHT22;22893;50.572;7.234;2023-04-15T06:25:46;21.50;49.60
24087;DHT22;22893;50.572;7.234;2023-04-15T06:28:14;21.50;49.70
24087;DHT22;22893;50.572;7.234;2023-04-15T06:30:41;21.50;49.70
24087;DHT22;22893;50.572;7.234;2023-04-15T06:33:09;21.50;49.70
24087;DHT22;22893;50.572;7.234;2023-04-15T06:35:37;21.50;49.70
24087;DHT22;22893;50.572;7.234;2023-04-15T06:38:04;21.60;49.70
24087;DHT22;22893;50.572;7.234;2023-04-15T06:40:32;21.60;49.80
24087;DHT22;22893;50.572;7.234;2023-04-15T06:43:00;21.60;49.90
24087;DHT22;22893;50.572;7.234;2023-04-15T06:45:27;21.60;50.00
24087;DHT22;22893;50.572;7.234;2023-04-15T06:47:55;21.60;50.00
24087;DHT22;22893;50.572;7.234;2023-04-15T06:50:22;21.60;50.20
24087;DHT22;22893;50.572;7.234;2023-04-15T06:52:50;21.60;50.20
24087;DHT22;22893;50.572;7.234;2023-04-15T06:55:17;21.60;50.20
24087;DHT22;22893;50.572;7.234;2023-04-15T06:57:45;21.50;50.10
24087;DHT22;22893;50.572;7.234;2023-04-15T07:00:13;21.60;51.00
24087;DHT22;22893;50.572;7.234;2023-04-15T07:02:41;21.60;50.30
24087;DHT22;22893;50.572;7.234;2023-04-15T07:05:08;21.60;50.40
24087;DHT22;22893;50.572;7.234;2023-04-15T07:07:36;21.70;50.50
24087;DHT22;22893;50.572;7.234;2023-04-15T07:10:05;21.70;50.50
24087;DHT22;22893;50.572;7.234;2023-04-15T07:12:33;21.70;50.50
24087;DHT22;22893;50.572;7.234;2023-04-15T07:15:01;21.70;50.50
24087;DHT22;22893;50.572;7.234;2023-04-15T07:17:29;21.70;50.50
24087;DHT22;22893;50.572;7.234;2023-04-15T07:19:56;21.70;50.50
24087;DHT22;22893;50.572;7.234;2023-04-15T07:22:24;21.70;50.50
24087;DHT22;22893;50.572;7.234;2023-04-15T07:24:52;21.70;50.50
24087;DHT22;22893;50.572;7.234;2023-04-15T07:27:19;21.70;50.50
24087;DHT22;22893;50.572;7.234;2023-04-15T07:29:47;21.70;50.50
24087;DHT22;22893;50.572;7.234;2023-04-15T07:32:17;21.80;50.60
24087;DHT22;22893;50.572;7.234;2023-04-15T07:34:44;21.80;50.60
24087;DHT22;22893;50.572;7.234;2023-04-15T07:37:12;21.80;50.60
24087;DHT22;22893;50.572;7.234;2023-04-15T07:39:40;21.80;50.60
24087;DHT22;22893;50.572;7.234;2023-04-15T07:42:08;21.70;50.50
24087;DHT22;22893;50.572;7.234;2023-04-15T07:44:35;21.80;50.70
24087;DHT22;22893;50.572;7.234;2023-04-15T07:47:03;21.80;50.60
24087;DHT22;22893;50.572;7.234;2023-04-15T07:49:31;21.80;50.80
24087;DHT22;22893;50.572;7.234;2023-04-15T07:51:59;21.80;50.90
24087;DHT22;22893;50.572;7.234;2023-04-15T07:54:26;21.80;50.80
24087;DHT22;22893;50.572;7.234;2023-04-15T07:56:54;21.80;49.20
24087;DHT22;22893;50.572;7.234;2023-04-15T07:59:21;21.70;49.30
24087;DHT22;22893;50.572;7.234;2023-04-15T08:01:49;21.60;50.10
24087;DHT22;22893;50.572;7.234;2023-04-15T08:04:17;21.60;50.00
24087;DHT22;22893;50.572;7.234;2023-04-15T08:06:44;21.50;50.30
24087;DHT22;22893;50.572;7.234;2023-04-15T08:09:13;21.50;50.50
24087;DHT22;22893;50.572;7.234;2023-04-15T08:11:41;21.60;50.70
24087;DHT22;22893;50.572;7.234;2023-04-15T08:14:08;21.60;51.10
24087;DHT22;22893;50.572;7.234;2023-04-15T08:16:36;21.70;50.40
24087;DHT22;22893;50.572;7.234;2023-04-15T08:19:04;21.80;50.70
24087;DHT22;22893;50.572;7.234;2023-04-15T08:21:31;21.80;50.80
24087;DHT22;22893;50.572;7.234;2023-04-15T08:23:59;21.80;50.90
24087;DHT22;22893;50.572;7.234;2023-04-15T08:26:27;21.80;50.90
24087;DHT22;22893;50.572;7.234;2023-04-15T08:28:54;21.70;50.80
24087;DHT22;22893;50.572;7.234;2023-04-15T08:31:22;21.70;51.00
24087;DHT22;22893;50.572;7.234;2023-04-15T08:33:50;21.80;51.00
24087;DHT22;22893;50.572;7.234;2023-04-15T08:36:19;21.80;51.20
24087;DHT22;22893;50.572;7.234;2023-04-15T08:38:47;21.80;51.20
24087;DHT22;22893;50.572;7.234;2023-04-15T08:41:22;21.80;51.20
24087;DHT22;22893;50.572;7.234;2023-04-15T08:43:59;21.80;51.20
24087;DHT22;22893;50.572;7.234;2023-04-15T08:46:27;21.80;51.10
24087;DHT22;22893;50.572;7.234;2023-04-15T08:48:57;21.80;51.10
24087;DHT22;22893;50.572;7.234;2023-04-15T08:51:25;21.80;51.10
24087;DHT22;22893;50.572;7.234;2023-04-15T08:53:53;21.90;50.80
24087;DHT22;22893;50.572;7.234;2023-04-15T08:56:23;21.80;51.10
24087;DHT22;22893;50.572;7.234;2023-04-15T08:58:53;21.90;51.80
24087;DHT22;22893;50.572;7.234;2023-04-15T09:01:20;21.90;51.30
24087;DHT22;22893;50.572;7.234;2023-04-15T09:03:49;21.90;51.10
24087;DHT22;22893;50.572;7.234;2023-04-15T09:06:17;21.90;51.20
24087;DHT22;22893;50.572;7.234;2023-04-15T09:08:45;21.90;51.10
24087;DHT22;22893;50.572;7.234;2023-04-15T09:11:13;21.80;50.80
24087;DHT22;22893;50.572;7.234;2023-04-15T09:13:40;21.80;50.70
24087;DHT22;22893;50.572;7.234;2023-04-15T09:16:08;21.80;50.90
24087;DHT22;22893;50.572;7.234;2023-04-15T09:18:37;21.80;50.90
24087;DHT22;22893;50.572;7.234;2023-04-15T09:21:09;21.80;50.60
24087;DHT22;22893;50.572;7.234;2023-04-15T09:23:39;21.80;50.60
24087;DHT22;22893;50.572;7.234;2023-04-15T09:26:07;21.80;50.80
24087;DHT22;22893;50.572;7.234;2023-04-15T09:28:42;21.80;50.70
24087;DHT22;22893;50.572;7.234;2023-04-15T09:31:09;21.80;50.90
24087;DHT22;22893;50.572;7.234;2023-04-15T09:33:53;21.80;51.00
24087;DHT22;22893;50.572;7.234;2023-04-15T09:36:08;21.90;51.10
24087;DHT22;22893;50.572;7.234;2023-04-15T09:38:43;21.90;51.20
24087;DHT22;22893;50.572;7.234;2023-04-15T09:41:15;21.80;51.10
24087;DHT22;22893;50.572;7.234;2023-04-15T09:43:38;21.90;51.20
24087;DHT22;22893;50.572;7.234;2023-04-15T09:46:06;21.80;51.10
24087;DHT22;22893;50.572;7.234;2023-04-15T09:48:34;21.90;51.40
24087;DHT22;22893;50.572;7.234;2023-04-15T09:51:02;21.90;51.50
24087;DHT22;22893;50.572;7.234;2023-04-15T09:53:33;21.90;51.40
24087;DHT22;22893;50.572;7.234;2023-04-15T09:56:02;21.90;51.50
24087;DHT22;22893;50.572;7.234;2023-04-15T09:58:32;21.90;51.70
24087;DHT22;22893;50.572;7.234;2023-04-15T10:01:02;21.90;51.60
24087;DHT22;22893;50.572;7.234;2023-04-15T10:03:32;21.90;51.50
24087;DHT22;22893;50.572;7.234;2023-04-15T10:06:02;21.90;51.40
24087;DHT22;22893;50.572;7.234;2023-04-15T10:08:32;21.90;51.40
24087;DHT22;22893;50.572;7.234;2023-04-15T10:11:01;21.90;52.00
24087;DHT22;22893;50.572;7.234;2023-04-15T10:13:31;21.90;52.20
24087;DHT22;22893;50.572;7.234;2023-04-15T10:16:14;21.90;51.20
24087;DHT22;22893;50.572;7.234;2023-04-15T10:18:43;21.90;51.70
24087;DHT22;22893;50.572;7.234;2023-04-15T10:21:12;21.90;51.30
24087;DHT22;22893;50.572;7.234;2023-04-15T10:23:42;21.90;51.20
24087;DHT22;22893;50.572;7.234;2023-04-15T10:26:11;21.90;51.40
24087;DHT22;22893;50.572;7.234;2023-04-15T10:28:40;21.90;51.10
24087;DHT22;22893;50.572;7.234;2023-04-15T10:31:10;21.90;51.00
24087;DHT22;22893;50.572;7.234;2023-04-15T10:33:37;21.90;50.60
24087;DHT22;22893;50.572;7.234;2023-04-15T10:36:06;21.90;51.30
24087;DHT22;22893;50.572;7.234;2023-04-15T10:38:39;21.90;50.80
24087;DHT22;22893;50.572;7.234;2023-04-15T10:41:25;21.90;51.60
24087;DHT22;22893;50.572;7.234;2023-04-15T10:43:55;21.90;51.30
24087;DHT22;22893;50.572;7.234;2023-04-15T10:46:34;21.90;51.50
24087;DHT22;22893;50.572;7.234;2023-04-15T10:48:55;22.00;52.20
24087;DHT22;22893;50.572;7.234;2023-04-15T10:51:27;22.00;51.60
24087;DHT22;22893;50.572;7.234;2023-04-15T10:54:01;22.00;51.30
24087;DHT22;22893;50.572;7.234;2023-04-15T10:56:29;21.90;50.90
24087;DHT22;22893;50.572;7.234;2023-04-15T10:58:58;22.00;51.40
24087;DHT22;22893;50.572;7.234;2023-04-15T11:01:55;22.00;50.90
24087;DHT22;22893;50.572;7.234;2023-04-15T11:04:55;22.00;51.30
24087;DHT22;22893;50.572;7.234;2023-04-15T11:12:56;22.00;50.80
24087;DHT22;22893;50.572;7.234;2023-04-15T11:20:35;22.00;51.60
24087;DHT22;22893;50.572;7.234;2023-04-15T11:23:03;22.00;51.50
24087;DHT22;22893;50.572;7.234;2023-04-15T11:25:35;22.00;51.70
24087;DHT22;22893;50.572;7.234;2023-04-15T11:28:04;22.00;51.30
24087;DHT22;22893;50.572;7.234;2023-04-15T11:30:34;22.00;51.20
24087;DHT22;22893;50.572;7.234;2023-04-15T11:33:05;22.00;51.60
24087;DHT22;22893;50.572;7.234;2023-04-15T11:35:34;22.00;51.60
24087;DHT22;22893;50.572;7.234;2023-04-15T11:38:03;22.00;51.70
24087;DHT22;22893;50.572;7.234;2023-04-15T11:40:31;22.00;51.70
24087;DHT22;22893;50.572;7.234;2023-04-15T11:43:13;22.00;51.60
24087;DHT22;22893;50.572;7.234;2023-04-15T11:45:48;22.00;51.80
24087;DHT22;22893;50.572;7.234;2023-04-15T11:48:10;22.10;51.80
24087;DHT22;22893;50.572;7.234;2023-04-15T11:50:39;22.00;51.80
24087;DHT22;22893;50.572;7.234;2023-04-15T11:53:09;22.00;51.90
24087;DHT22;22893;50.572;7.234;2023-04-15T11:55:48;22.00;51.90
24087;DHT22;22893;50.572;7.234;2023-04-15T11:58:25;22.10;52.00
24087;DHT22;22893;50.572;7.234;2023-04-15T12:00:55;22.10;51.60
24087;DHT22;22893;50.572;7.234;2023-04-15T12:03:27;22.10;51.70
24087;DHT22;22893;50.572;7.234;2023-04-15T12:06:15;22.10;51.60
24087;DHT22;22893;50.572;7.234;2023-04-15T12:14:12;22.10;51.90
24087;DHT22;22893;50.572;7.234;2023-04-15T12:16:42;22.10;51.80
24087;DHT22;22893;50.572;7.234;2023-04-15T12:19:13;22.10;51.80
24087;DHT22;22893;50.572;7.234;2023-04-15T12:21:47;22.10;51.90
24087;DHT22;22893;50.572;7.234;2023-04-15T12:24:12;22.10;52.00
24087;DHT22;22893;50.572;7.234;2023-04-15T12:26:51;22.10;51.80
24087;DHT22;22893;50.572;7.234;2023-04-15T12:29:23;22.10;51.90
24087;DHT22;22893;50.572;7.234;2023-04-15T12:31:54;22.10;52.00
24087;DHT22;22893;50.572;7.234;2023-04-15T12:34:30;22.10;52.10
24087;DHT22;22893;50.572;7.234;2023-04-15T12:37:00;22.10;51.80
24087;DHT22;22893;50.572;7.234;2023-04-15T12:39:34;22.10;52.00
24087;DHT22;22893;50.572;7.234;2023-04-15T12:41:58;22.10;51.70
24087;DHT22;22893;50.572;7.234;2023-04-15T12:44:27;22.10;51.70
24087;DHT22;22893;50.572;7.234;2023-04-15T12:46:55;22.00;51.70
24087;DHT22;22893;50.572;7.234;2023-04-15T12:49:24;22.10;51.80
24087;DHT22;22893;50.572;7.234;2023-04-15T12:51:58;22.10;52.00
24087;DHT22;22893;50.572;7.234;2023-04-15T12:54:22;22.10;51.70
24087;DHT22;22893;50.572;7.234;2023-04-15T12:56:51;22.10;51.70
24087;DHT22;22893;50.572;7.234;2023-04-15T12:59:19;22.00;51.60
24087;DHT22;22893;50.572;7.234;2023-04-15T13:01:49;22.00;51.60
24087;DHT22;22893;50.572;7.234;2023-04-15T13:04:18;22.10;51.80
24087;DHT22;22893;50.572;7.234;2023-04-15T13:06:46;22.10;51.80
24087;DHT22;22893;50.572;7.234;2023-04-15T13:09:14;22.00;51.80
24087;DHT22;22893;50.572;7.234;2023-04-15T13:11:42;22.10;51.80
24087;DHT22;22893;50.572;7.234;2023-04-15T13:14:10;22.10;51.70
24087;DHT22;22893;50.572;7.234;2023-04-15T13:16:38;22.00;51.90
24087;DHT22;22893;50.572;7.234;2023-04-15T13:19:06;22.00;51.80
24087;DHT22;22893;50.572;7.234;2023-04-15T13:21:33;22.10;52.00
24087;DHT22;22893;50.572;7.234;2023-04-15T13:24:01;22.10;52.00
24087;DHT22;22893;50.572;7.234;2023-04-15T13:26:29;22.10;52.10
24087;DHT22;22893;50.572;7.234;2023-04-15T13:28:57;22.00;52.00
24087;DHT22;22893;50.572;7.234;2023-04-15T13:31:24;22.10;52.10
24087;DHT22;22893;50.572;7.234;2023-04-15T13:33:52;22.10;52.20
24087;DHT22;22893;50.572;7.234;2023-04-15T13:36:20;22.00;52.20
24087;DHT22;22893;50.572;7.234;2023-04-15T13:38:48;22.00;52.20
24087;DHT22;22893;50.572;7.234;2023-04-15T13:41:15;22.00;52.20
24087;DHT22;22893;50.572;7.234;2023-04-15T13:43:43;22.10;52.20
24087;DHT22;22893;50.572;7.234;2023-04-15T13:46:11;22.10;52.30
24087;DHT22;22893;50.572;7.234;2023-04-15T13:48:38;22.10;52.40
24087;DHT22;22893;50.572;7.234;2023-04-15T13:51:06;22.00;52.20
24087;DHT22;22893;50.572;7.234;2023-04-15T13:53:34;22.10;52.50
24087;DHT22;22893;50.572;7.234;2023-04-15T13:56:02;22.10;52.40
24087;DHT22;22893;50.572;7.234;2023-04-15T13:58:29;22.00;52.90
24087;DHT22;22893;50.572;7.234;2023-04-15T14:00:57;22.10;52.50
24087;DHT22;22893;50.572;7.234;2023-04-15T14:03:25;22.10;52.40
24087;DHT22;22893;50.572;7.234;2023-04-15T14:05:53;22.10;52.40
24087;DHT22;22893;50.572;7.234;2023-04-15T14:08:23;22.10;52.40
24087;DHT22;22893;50.572;7.234;2023-04-15T14:10:51;22.00;53.00
24087;DHT22;22893;50.572;7.234;2023-04-15T14:13:19;22.00;52.40
24087;DHT22;22893;50.572;7.234;2023-04-15T14:15:46;22.10;52.40
24087;DHT22;22893;50.572;7.234;2023-04-15T14:18:14;22.10;52.50
24087;DHT22;22893;50.572;7.234;2023-04-15T14:20:42;22.10;52.40
24087;DHT22;22893;50.572;7.234;2023-04-15T14:23:09;22.10;52.40
24087;DHT22;22893;50.572;7.234;2023-04-15T14:25:37;22.00;52.40
24087;DHT22;22893;50.572;7.234;2023-04-15T14:28:05;22.00;52.40
24087;DHT22;22893;50.572;7.234;2023-04-15T14:30:33;22.00;52.40
24087;DHT22;22893;50.572;7.234;2023-04-15T14:33:00;22.10;52.50
24087;DHT22;22893;50.572;7.234;2023-04-15T14:35:29;22.10;52.50
24087;DHT22;22893;50.572;7.234;2023-04-15T14:37:57;22.10;52.50
24087;DHT22;22893;50.572;7.234;2023-04-15T14:40:24;22.10;52.50
24087;DHT22;22893;50.572;7.234;2023-04-15T14:42:52;22.10;52.50
24087;DHT22;22893;50.572;7.234;2023-04-15T14:45:19;22.10;52.50
24087;DHT22;22893;50.572;7.234;2023-04-15T14:47:47;22.10;52.50
24087;DHT22;22893;50.572;7.234;2023-04-15T14:50:15;22.00;52.60
24087;DHT22;22893;50.572;7.234;2023-04-15T14:52:43;22.00;52.60
24087;DHT22;22893;50.572;7.234;2023-04-15T14:55:12;22.10;52.80
24087;DHT22;22893;50.572;7.234;2023-04-15T14:57:41;22.00;52.70
24087;DHT22;22893;50.572;7.234;2023-04-15T15:00:10;22.00;52.60
24087;DHT22;22893;50.572;7.234;2023-04-15T15:02:38;22.10;52.60
24087;DHT22;22893;50.572;7.234;2023-04-15T15:05:06;22.10;52.70
24087;DHT22;22893;50.572;7.234;2023-04-15T15:07:33;22.10;52.80
24087;DHT22;22893;50.572;7.234;2023-04-15T15:10:02;22.10;52.70
24087;DHT22;22893;50.572;7.234;2023-04-15T15:12:33;22.10;52.70
24087;DHT22;22893;50.572;7.234;2023-04-15T15:15:02;22.00;53.30
24087;DHT22;22893;50.572;7.234;2023-04-15T15:17:30;22.10;52.70
24087;DHT22;22893;50.572;7.234;2023-04-15T15:19:57;22.10;52.70
24087;DHT22;22893;50.572;7.234;2023-04-15T15:22:25;22.10;52.80
24087;DHT22;22893;50.572;7.234;2023-04-15T15:24:53;22.10;52.80
24087;DHT22;22893;50.572;7.234;2023-04-15T15:27:22;22.10;53.00
24087;DHT22;22893;50.572;7.234;2023-04-15T15:29:50;22.10;52.80
24087;DHT22;22893;50.572;7.234;2023-04-15T15:32:18;22.10;53.00
24087;DHT22;22893;50.572;7.234;2023-04-15T15:34:45;22.10;52.90
24087;DHT22;22893;50.572;7.234;2023-04-15T15:37:13;22.10;53.70
24087;DHT22;22893;50.572;7.234;2023-04-15T15:39:41;22.10;53.00
24087;DHT22;22893;50.572;7.234;2023-04-15T15:42:08;22.10;52.90
24087;DHT22;22893;50.572;7.234;2023-04-15T15:44:36;22.10;53.20
24087;DHT22;22893;50.572;7.234;2023-04-15T15:47:05;22.00;52.90
24087;DHT22;22893;50.572;7.234;2023-04-15T15:49:32;22.00;53.20
24087;DHT22;22893;50.572;7.234;2023-04-15T15:52:00;22.00;53.20
24087;DHT22;22893;50.572;7.234;2023-04-15T15:54:28;22.00;53.10